INDIA METEOROLOGICAL DEPARTMENT, R.M.C. NEW DELHI
Dated:24-02-2019
METARS


Agartala   
VEAT 240000Z 00000KT 0150 FG NSC 22/21 Q1011 NOSIG=
Ahmedabad  
VAAH 240030Z 00000KT 4000 HZ SCT080 17/09 Q1011 TEMPO 3000=
Allahabad  
VEAB 240030Z 00000KT 6000 SKC 12/09 Q1012 NOSIG=
Amritsar   
VIAR 240030Z 00000KT 1500 BR FEW040 08/08 Q1012 NOSIG=
Aurangabad 
VAAU 240000Z 00000 3000 HZ NSC 19/08 Q1013 NOSIG=
Bangalore  
VOBL 240100Z VRB02KT 3000 BR FEW010 13/10 Q1016 TEMPO 2000 BR=
Baroda     
VABO 240100Z 05004KT 5000 HZ NSC 16/12 Q1010 TEMPO 4000=
Bhopal     
VABP 240000Z 07002KT 5000 HZ FEW025 BKN100 17/12 Q1013 NOSIG=
Bhubaneswar
VEBS 240030Z 00000KT 2500 BR FEW100 24/23 Q1009 NOSIG=
Chennai    
VOMM 240100Z 00000KT 3000 BR FEW020 22/21 Q1012 TEMPO 1500 BR=
Coimbatore 
VOCB 240100Z VRB03KT 4000 HZ NSC 20/15 Q1013 NOSIG=
Colombo    
VCBI 240040Z 05004KT 9000 NSC 21/20 Q1009 NOSIG=
Delhi      
VIDP 240100Z 24005KT 1000 R28/P2000 R29/P2000 BR SCT040 BKN100 13/11 Q1012 NOSIG=
Dehradun   
VIDN 240000Z 04004KT 2500 BR BKN060 13/11 Q1011 =
Gauhati    
VEGT 240100Z 00000KT 1500 BR FEW018 SCT100 17/16 Q1010 NOSIG=
Gaya       
VEGY 240030Z NIL=
Gaggal     
VIGG 240000Z 01001KT 6000 BKN100 09/09 Q1014=
Goa        
VOGO 232330Z 14005KT 6000 NSC 24/17 Q1009 NOSIG=
Hyderabad  
VOHS 240030Z 22003KT 6000 NSC 24/10 Q1014 NOSIG=
Indore     
VAID 240000Z 09008KT 5000 HZ FEW020 SCT100 18/10 Q1013 NOSIG=
Jaipur     
VIJP 240100Z 00000KT 2000 HZ FEW035 SCT100 16/06 Q1013 NOSIG=
Kochi      
VOCI 240100Z 11002KT 3000 BR FEW008 SCT080 23/21 Q1009 TEMPO 2000 BR=
Kolkata    
VECC 240100Z 01004KT 2200 BR NSC 20/17 Q1011 NOSIG=
Kozhikode  
VOCL 240100Z 07005KT 5000 BR NSC 22/20 Q1010 NOSIG=
Lucknow    
VILK 240030Z 00000KT 2500 BR NSC 10/09 Q1011 NOSIG=
Madurai    
VOMD 240030Z 00000KT 5000 BR NSC 21/19 Q1011 NOSIG=
Mohanbari  
VEMN 240100Z 08005KT 1300 -DZ SCT010 SCT018 OVC090 16/15 Q1011 NOSIG=
Mumbai     
VABB 240030Z 34006KT 3500 FU NSC 24/14 Q1010 NOSIG=
Nagpur     
VANP 240030Z 00000KT 3000 HZ FEW100 23/14 Q1011 NOSIG=
Patna      
VEPT 240030Z 25004KT 2500 HZ FEW020 SCT100 13/09 Q1011 BECMG 3000 HZ=
Raipur     
VERP 240030Z 07006KT 6000 FEW025 21/15 Q1012 NOSIG=
Surat     
VASU 240030Z 08002KT 3000 HZ NSC 19/13 Q1011=
Ranchi     
VERC 240030Z 02003KT 2500 HZ NSC 18/09 Q1013 NOSIG=
Trichy     
VOTR 240030Z 27003KT 3000 BR NSC 21/19 Q1010 NOSIG=
Trivandrum 
VOTV 240100Z VRB03KT 4000 BR FEW015 23/20 Q1009 NOSIG=
Udaipur    
VAUD 240000Z 00000KT 2000 HZ SCT030 SCT10015/10 Q1013 NOSIG=
Varanasi   
VEBN 240030Z 21006KT 3000 BR FEW100 14/11 Q1011 NOSIG=
Vizag      
VOVZ 240030Z 32003KT 4500 BR NSC 22/18 Q1010 TEMPO 4000 BR =
Male       
VRMM 240100Z 07011KT 9000 SCT018TCU BKN280 28/23 Q1009 NOSIG=
Gan        
VRMG 240000Z 12003KT 9999 FEW018 BKN260 26/24 Q1008 NOSIG=
Kathmandu  
VNKT 240050Z VRB02KT 3000 BR FEW010 SCT100 08/07 Q1015 NOSIG=
Dhaka      
VGHS 240100Z 32004KT 2000 BR NSC 21/18 Q1012 NOSIG=
Colombo    
VCBI 240040Z 05004KT 9000 NSC 21/20 Q1009 NOSIG=
Karachi    
OPKC 240100Z 32008KT 5000 HZ SCT100 18/11 Q1013 NOSIG=
Lahore     
OPLA 240025Z 00000KT 4000 FU NSC 10/08 Q1012 RMK QFE986 RMK A29.87=
Leh        
VILH 240030Z 00000KT 6000 FEW070 BKN150 -8/-1 Q1017 NOSIG=
Sri Nagar  
VISR 240030Z VRB02KT 6000 FEW030 SCT090 BKN200 03/00 Q1015 NOSIG=
Jammu      
VIJU 240030Z VRB01KT 4000 BR SCT100 11/10 Q1011 NOSIG=
Jodhpur    
VIJO 240030Z 00000KT 6000 FEW030 BKN090 16/02 Q1013 NOSIG=
Jaisalmer  
VIJR 240030Z VRB02KT 6000 FEW100 14/02 Q1012 NOSIG=
Bhuj-Rudra 
VABJ 240030Z 33003KT 6000 SCT250 19/11 Q1013 NOSIG=
Gorakhpur  
VEGK 240030Z 29005KT 5000 BR SCT250 14/11 Q1011=
Agra       
VIAG 240030Z VRB02KT 4000 BR SCT100 BKN250 11/11 Q1011 BECMG 3000 BR=
Bagdogra   
VEBD 240030Z VRB01KT 2500 BR SKC 14/14 Q1010 TEMPO 1500M=
Gwalior    
VIGR 240030Z VRB02KT 3000 BR SCT025 SCT100 11/09 Q1011 NOSIG=
Pune       
VAPO 240030Z VRB02KT 6000 NSC 20/09 Q1014 NOSIG=
Chandigarh 
VICG 240030Z 29003KT 4000 BR SCT100 SCT250 11/11 Q1012 BECMG 3000=
Jamnagar   
VAJM 240030Z 18002KT 5000 HZ SCT100 SCT250 15/08 Q1012 BECMG 3000 HZ=